createdAt,value
2023-04-16T00:00:30.667Z,63.28
2023-04-16T00:01:33.550Z,63.63
2023-04-16T00:02:35.643Z,63.70
2023-04-16T00:03:38.835Z,62.89
2023-04-16T00:04:41.277Z,63.30
2023-04-16T00:05:44.251Z,63.39
2023-04-16T00:06:46.308Z,63.62
2023-04-16T00:07:51.637Z,63.04
2023-04-16T00:08:53.500Z,63.85
2023-04-16T00:09:56.643Z,63.38
2023-04-16T00:10:58.501Z,63.10
2023-04-16T00:12:01.566Z,63.14
2023-04-16T00:13:03.535Z,63.29
2023-04-16T00:14:06.703Z,63.43
2023-04-16T00:15:09.458Z,63.53
2023-04-16T00:16:12.285Z,63.58
2023-04-16T00:17:14.165Z,63.29
2023-04-16T00:18:17.051Z,63.54
2023-04-16T00:19:18.958Z,63.09
2023-04-16T00:20:22.223Z,63.72
2023-04-16T00:21:24.106Z,64.07
2023-04-16T00:22:26.921Z,63.32
2023-04-16T00:23:30.493Z,63.42
2023-04-16T00:24:33.328Z,63.33
2023-04-16T00:25:35.338Z,62.71
2023-04-16T00:26:38.192Z,62.50
2023-04-16T00:27:40.311Z,62.81
2023-04-16T00:28:43.179Z,63.50
2023-04-16T00:29:44.996Z,62.90
2023-04-16T00:30:48.306Z,63.52
2023-04-16T00:31:50.291Z,62.92
2023-04-16T00:32:53.238Z,62.91
2023-04-16T00:33:55.531Z,63.63
2023-04-16T00:34:58.393Z,63.19
2023-04-16T00:36:00.249Z,62.36
2023-04-16T00:37:03.134Z,62.85
2023-04-16T00:38:05.000Z,63.90
2023-04-16T00:39:09.574Z,62.94
2023-04-16T00:40:12.170Z,63.37
2023-04-16T00:41:15.086Z,62.96
2023-04-16T00:42:16.952Z,63.94
2023-04-16T00:43:24.808Z,63.09
2023-04-16T00:44:26.727Z,63.25
2023-04-16T00:45:29.958Z,63.40
2023-04-16T00:46:31.901Z,63.09
2023-04-16T00:47:35.109Z,63.36
2023-04-16T00:48:38.552Z,63.17
2023-04-16T00:49:41.577Z,63.72
2023-04-16T00:50:43.834Z,63.04
2023-04-16T00:51:47.392Z,62.86
2023-04-16T00:52:49.842Z,63.13
2023-04-16T00:53:53.600Z,62.84
2023-04-16T00:54:57.348Z,63.80
2023-04-16T00:56:00.694Z,64.05
2023-04-16T00:57:03.051Z,63.41
2023-04-16T00:58:07.008Z,62.92
2023-04-16T00:59:09.229Z,62.71
2023-04-16T01:00:14.014Z,64.82
2023-04-16T01:01:16.292Z,63.18
2023-04-16T01:02:19.262Z,63.17
2023-04-16T01:03:21.260Z,63.66
2023-04-16T01:04:24.745Z,63.34
2023-04-16T01:05:27.060Z,62.98
2023-04-16T01:06:29.952Z,63.08
2023-04-16T01:07:31.966Z,62.83
2023-04-16T01:08:34.967Z,63.03
2023-04-16T01:09:37.233Z,63.62
2023-04-16T01:10:41.435Z,63.65
2023-04-16T01:11:43.353Z,63.23
2023-04-16T01:12:46.211Z,63.63
2023-04-16T01:13:48.188Z,63.55
2023-04-16T01:14:51.222Z,63.96
2023-04-16T01:15:53.188Z,63.45
2023-04-16T01:16:55.998Z,63.11
2023-04-16T01:17:57.880Z,63.17
2023-04-16T01:19:00.957Z,63.04
2023-04-16T01:20:03.259Z,63.04
2023-04-16T01:21:07.848Z,63.41
2023-04-16T01:22:09.732Z,63.37
2023-04-16T01:23:12.597Z,62.78
2023-04-16T01:24:14.432Z,62.85
2023-04-16T01:25:17.462Z,63.84
2023-04-16T01:26:19.727Z,63.89
2023-04-16T01:27:22.611Z,63.16
2023-04-16T01:28:24.484Z,62.90
2023-04-16T01:29:27.621Z,63.25
2023-04-16T01:30:31.954Z,63.58
2023-04-16T01:31:43.410Z,63.88
2023-04-16T01:33:00.377Z,63.57
2023-04-16T01:34:03.296Z,63.71
2023-04-16T01:35:05.534Z,63.40
2023-04-16T01:36:09.881Z,63.32
2023-04-16T01:37:12.761Z,63.49
2023-04-16T01:38:15.760Z,63.47
2023-04-16T01:39:19.407Z,63.56
2023-04-16T01:40:22.337Z,62.87
2023-04-16T01:41:24.827Z,63.11
2023-04-16T01:42:28.194Z,62.48
2023-04-16T01:43:30.086Z,62.85
2023-04-16T01:44:32.996Z,63.62
2023-04-16T01:45:35.903Z,63.87
2023-04-16T01:46:39.137Z,63.46
2023-04-16T01:47:41.078Z,63.40
2023-04-16T01:48:44.217Z,63.21
2023-04-16T01:49:48.196Z,62.79
2023-04-16T01:50:51.111Z,63.25
2023-04-16T01:51:54.308Z,63.59
2023-04-16T01:52:57.157Z,63.11
2023-04-16T01:53:59.278Z,63.25
2023-04-16T01:55:02.296Z,63.03
2023-04-16T01:56:04.850Z,63.19
2023-04-16T01:57:07.715Z,62.90
2023-04-16T01:58:11.041Z,63.15
2023-04-16T01:59:15.059Z,63.52
2023-04-16T02:00:17.324Z,62.79
2023-04-16T02:01:23.269Z,62.64
2023-04-16T02:02:28.183Z,63.42
2023-04-16T02:03:32.149Z,62.59
2023-04-16T02:04:34.156Z,62.96
2023-04-16T02:05:36.958Z,63.00
2023-04-16T02:06:38.985Z,63.35
2023-04-16T02:07:43.148Z,63.29
2023-04-16T02:08:44.977Z,63.53
2023-04-16T02:09:51.292Z,62.97
2023-04-16T02:10:53.299Z,63.13
2023-04-16T02:11:56.164Z,62.74
2023-04-16T02:12:59.025Z,63.14
2023-04-16T02:14:01.031Z,62.97
2023-04-16T02:15:04.473Z,63.14
2023-04-16T02:16:07.269Z,63.69
2023-04-16T02:17:19.844Z,62.91
2023-04-16T02:18:24.650Z,63.07
2023-04-16T02:19:27.939Z,63.69
2023-04-16T02:20:30.151Z,64.02
2023-04-16T02:21:36.404Z,63.40
2023-04-16T02:22:38.283Z,63.57
2023-04-16T02:23:42.807Z,63.16
2023-04-16T02:24:44.685Z,62.84
2023-04-16T02:25:48.666Z,63.31
2023-04-16T02:26:51.046Z,63.51
2023-04-16T02:27:54.803Z,63.77
2023-04-16T02:29:06.847Z,63.83
2023-04-16T02:30:20.764Z,62.84
2023-04-16T02:31:23.433Z,63.78
2023-04-16T02:32:26.615Z,63.58
2023-04-16T02:33:28.700Z,63.41
2023-04-16T02:34:36.614Z,63.14
2023-04-16T02:35:40.402Z,62.78
2023-04-16T02:36:44.459Z,63.25
2023-04-16T02:37:46.356Z,63.89
2023-04-16T02:38:50.697Z,63.01
2023-04-16T02:39:53.273Z,63.52
2023-04-16T02:40:56.523Z,62.92
2023-04-16T02:41:59.446Z,62.92
2023-04-16T02:43:03.156Z,62.65
2023-04-16T02:44:05.525Z,63.78
2023-04-16T02:45:09.727Z,63.88
2023-04-16T02:46:11.864Z,62.96
2023-04-16T02:47:15.541Z,63.52
2023-04-16T02:48:17.435Z,63.67
2023-04-16T02:49:20.287Z,64.28
2023-04-16T02:50:23.634Z,63.71
2023-04-16T02:51:27.734Z,63.48
2023-04-16T02:52:29.639Z,63.31
2023-04-16T02:53:32.436Z,63.02
2023-04-16T02:54:35.648Z,63.65
2023-04-16T02:55:38.798Z,63.47
2023-04-16T02:56:40.668Z,63.85
2023-04-16T02:57:43.503Z,63.65
2023-04-16T02:58:45.630Z,63.63
2023-04-16T02:59:48.653Z,64.65
2023-04-16T03:00:50.683Z,63.60
2023-04-16T03:01:53.670Z,64.13
2023-04-16T03:02:56.265Z,64.03
2023-04-16T03:03:59.360Z,62.87
2023-04-16T03:05:01.382Z,63.72
2023-04-16T03:06:04.553Z,63.11
2023-04-16T03:07:06.671Z,63.40
2023-04-16T03:08:09.713Z,63.05
2023-04-16T03:09:12.238Z,63.40
2023-04-16T03:10:16.680Z,63.44
2023-04-16T03:11:19.753Z,63.56
2023-04-16T03:12:22.652Z,63.52
2023-04-16T03:13:24.498Z,63.02
2023-04-16T03:14:27.295Z,63.56
2023-04-16T03:15:29.363Z,63.92
2023-04-16T03:16:32.223Z,63.55
2023-04-16T03:17:34.163Z,62.86
2023-04-16T03:18:37.888Z,63.28
2023-04-16T03:19:39.722Z,63.54
2023-04-16T03:20:42.477Z,63.29
2023-04-16T03:21:44.556Z,63.73
2023-04-16T03:22:48.053Z,63.19
2023-04-16T03:23:49.914Z,63.09
2023-04-16T03:24:52.775Z,63.13
2023-04-16T03:25:56.052Z,63.07
2023-04-16T03:26:59.075Z,63.37
2023-04-16T03:28:01.093Z,63.61
2023-04-16T03:29:04.145Z,65.05
2023-04-16T03:30:08.795Z,64.07
2023-04-16T03:31:12.394Z,63.05
2023-04-16T03:32:14.659Z,63.01
2023-04-16T03:33:17.505Z,65.24
2023-04-16T03:34:19.456Z,63.99
2023-04-16T03:35:22.759Z,63.83
2023-04-16T03:36:27.076Z,63.83
2023-04-16T03:37:29.067Z,64.81
2023-04-16T03:38:31.860Z,63.58
2023-04-16T03:39:34.562Z,63.57
2023-04-16T03:40:37.489Z,63.65
2023-04-16T03:41:40.733Z,63.45
2023-04-16T03:42:43.615Z,63.67
2023-04-16T03:43:45.817Z,63.67
2023-04-16T03:44:48.740Z,63.99
2023-04-16T03:45:51.586Z,63.37
2023-04-16T03:46:57.738Z,63.35
2023-04-16T03:47:59.657Z,63.58
2023-04-16T03:49:02.624Z,63.84
2023-04-16T03:50:05.158Z,63.16
2023-04-16T03:51:08.226Z,63.25
2023-04-16T03:52:11.227Z,63.90
2023-04-16T03:53:14.399Z,63.49
2023-04-16T03:54:16.745Z,64.54
2023-04-16T03:55:25.686Z,63.59
2023-04-16T03:56:27.557Z,64.47
2023-04-16T03:57:31.727Z,63.75
2023-04-16T03:58:40.847Z,63.13
2023-04-16T03:59:43.527Z,63.76
2023-04-16T04:00:46.580Z,63.49
2023-04-16T04:01:50.785Z,63.13
2023-04-16T04:02:54.190Z,63.28
2023-04-16T04:03:56.255Z,63.39
2023-04-16T04:04:59.213Z,63.78
2023-04-16T04:06:01.340Z,63.50
2023-04-16T04:07:06.392Z,63.99
2023-04-16T04:08:08.429Z,63.14
2023-04-16T04:09:12.085Z,63.81
2023-04-16T04:10:14.022Z,63.65
2023-04-16T04:11:17.946Z,63.37
2023-04-16T04:12:19.743Z,63.43
2023-04-16T04:13:24.787Z,64.85
2023-04-16T04:14:27.550Z,63.58
2023-04-16T04:15:30.441Z,63.57
2023-04-16T04:16:32.495Z,63.56
2023-04-16T04:17:36.357Z,63.93
2023-04-16T04:18:38.324Z,63.67
2023-04-16T04:19:47.245Z,63.41
2023-04-16T04:20:57.202Z,65.25
2023-04-16T04:22:04.637Z,64.48
2023-04-16T04:23:06.544Z,63.91
2023-04-16T04:24:09.543Z,65.16
2023-04-16T04:25:11.655Z,63.91
2023-04-16T04:26:14.582Z,64.07
2023-04-16T04:27:16.509Z,64.37
2023-04-16T04:28:19.388Z,64.12
2023-04-16T04:29:22.635Z,63.99
2023-04-16T04:30:26.301Z,64.06
2023-04-16T04:31:29.962Z,63.99
2023-04-16T04:32:33.517Z,63.88
2023-04-16T04:33:35.429Z,64.03
2023-04-16T04:34:38.612Z,63.26
2023-04-16T04:35:42.309Z,63.68
2023-04-16T04:36:45.189Z,63.69
2023-04-16T04:37:48.959Z,64.25
2023-04-16T04:38:55.108Z,64.39
2023-04-16T04:39:57.694Z,64.95
2023-04-16T04:41:00.850Z,64.47
2023-04-16T04:42:07.008Z,64.41
2023-04-16T04:43:09.908Z,64.08
2023-04-16T04:44:11.779Z,63.83
2023-04-16T04:45:16.041Z,64.10
2023-04-16T04:46:18.041Z,63.86
2023-04-16T04:47:21.294Z,63.54
2023-04-16T04:48:26.541Z,64.67
2023-04-16T04:49:30.637Z,64.42
2023-04-16T04:50:32.553Z,63.63
2023-04-16T04:51:35.486Z,63.67
2023-04-16T04:52:37.567Z,64.74
2023-04-16T04:53:40.882Z,64.94
2023-04-16T04:54:42.774Z,64.39
2023-04-16T04:55:45.616Z,64.38
2023-04-16T04:56:47.672Z,63.82
2023-04-16T04:57:51.015Z,63.77
2023-04-16T04:58:52.972Z,63.79
2023-04-16T04:59:56.509Z,63.72
2023-04-16T05:00:59.962Z,64.39
2023-04-16T05:02:03.617Z,65.78
2023-04-16T05:03:09.720Z,64.87
2023-04-16T05:04:12.772Z,63.84
2023-04-16T05:05:14.740Z,63.91
2023-04-16T05:06:17.863Z,64.14
2023-04-16T05:07:19.750Z,65.45
2023-04-16T05:08:22.631Z,65.09
2023-04-16T05:09:24.541Z,64.21
2023-04-16T05:10:27.936Z,64.44
2023-04-16T05:11:29.981Z,65.16
2023-04-16T05:12:32.854Z,64.85
2023-04-16T05:13:34.782Z,63.83
2023-04-16T05:14:37.711Z,65.01
2023-04-16T05:15:39.637Z,65.50
2023-04-16T05:16:43.900Z,64.33
2023-04-16T05:17:46.453Z,64.43
2023-04-16T05:18:50.381Z,63.97
2023-04-16T05:19:52.578Z,64.53
2023-04-16T05:20:55.951Z,64.41
2023-04-16T05:21:57.889Z,64.63
2023-04-16T05:23:00.868Z,64.73
2023-04-16T05:24:03.067Z,64.31
2023-04-16T05:25:06.727Z,63.88
2023-04-16T05:26:08.574Z,64.33
2023-04-16T05:27:11.424Z,64.89
2023-04-16T05:28:13.293Z,64.77
2023-04-16T05:29:16.069Z,64.77
2023-04-16T05:30:18.424Z,64.38
2023-04-16T05:31:21.472Z,64.20
2023-04-16T05:32:25.828Z,65.05
2023-04-16T05:33:28.738Z,64.74
2023-04-16T05:34:30.847Z,64.39
2023-04-16T05:35:34.439Z,64.46
2023-04-16T05:36:36.270Z,65.32
2023-04-16T05:37:39.123Z,65.29
2023-04-16T05:38:41.034Z,65.08
2023-04-16T05:39:43.796Z,64.36
2023-04-16T05:40:45.835Z,64.66
2023-04-16T05:41:48.785Z,65.10
2023-04-16T05:42:50.866Z,65.46
2023-04-16T05:43:53.752Z,64.48
2023-04-16T05:44:55.657Z,64.65
2023-04-16T05:45:58.571Z,64.30
2023-04-16T05:47:00.493Z,64.48
2023-04-16T05:48:04.797Z,65.20
2023-04-16T05:49:06.691Z,65.08
2023-04-16T05:50:10.343Z,66.34
2023-04-16T05:51:12.327Z,65.79
2023-04-16T05:52:15.407Z,65.87
2023-04-16T05:53:19.008Z,65.19
2023-04-16T05:54:21.928Z,64.79
2023-04-16T05:55:23.739Z,65.10
2023-04-16T05:56:27.065Z,65.45
2023-04-16T05:57:29.641Z,63.96
2023-04-16T05:58:32.517Z,64.00
2023-04-16T05:59:34.494Z,65.00
2023-04-16T06:00:37.442Z,64.37
2023-04-16T06:01:39.322Z,64.31
2023-04-16T06:02:42.510Z,63.79
2023-04-16T06:03:46.135Z,64.00
2023-04-16T06:04:49.884Z,64.66
2023-04-16T06:05:51.819Z,64.31
2023-04-16T06:06:54.679Z,65.71
2023-04-16T06:07:56.573Z,65.08
2023-04-16T06:08:59.414Z,65.99
2023-04-16T06:10:01.377Z,65.41
2023-04-16T06:11:04.733Z,65.32
2023-04-16T06:12:08.566Z,64.77
2023-04-16T06:13:10.725Z,64.72
2023-04-16T06:14:13.518Z,64.90
2023-04-16T06:15:15.373Z,66.10
2023-04-16T06:16:18.235Z,66.47
2023-04-16T06:17:20.127Z,64.92
2023-04-16T06:18:22.966Z,66.35
2023-04-16T06:19:26.211Z,66.24
2023-04-16T06:20:29.301Z,65.42
2023-04-16T06:21:33.659Z,66.04
2023-04-16T06:22:35.847Z,65.20
2023-04-16T06:23:38.728Z,64.24
2023-04-16T06:24:40.598Z,64.14
2023-04-16T06:25:43.610Z,64.20
2023-04-16T06:26:45.677Z,65.51
2023-04-16T06:27:48.585Z,65.17
2023-04-16T06:28:50.431Z,64.74
2023-04-16T06:29:53.544Z,63.80
2023-04-16T06:30:56.589Z,63.91
2023-04-16T06:31:58.460Z,65.02
2023-04-16T06:33:01.550Z,65.02
2023-04-16T06:34:03.485Z,65.29
2023-04-16T06:35:08.741Z,64.98
2023-04-16T06:36:11.618Z,65.28
2023-04-16T06:37:14.606Z,64.94
2023-04-16T06:38:16.489Z,64.84
2023-04-16T06:39:21.734Z,64.43
2023-04-16T06:40:23.750Z,64.43
2023-04-16T06:41:27.142Z,66.22
2023-04-16T06:42:28.972Z,66.34
2023-04-16T06:43:33.439Z,65.93
2023-04-16T06:44:36.120Z,65.79
2023-04-16T06:45:38.955Z,66.78
2023-04-16T06:46:40.950Z,65.72
2023-04-16T06:47:43.909Z,65.02
2023-04-16T06:48:45.980Z,64.89
2023-04-16T06:49:48.825Z,65.25
2023-04-16T06:50:52.095Z,65.40
2023-04-16T06:51:55.037Z,65.48
2023-04-16T06:52:57.313Z,66.09
2023-04-16T06:54:00.172Z,64.75
2023-04-16T06:55:02.156Z,65.95
2023-04-16T06:56:05.557Z,66.42
2023-04-16T06:57:07.373Z,65.47
2023-04-16T06:58:10.212Z,64.87
2023-04-16T06:59:12.111Z,66.10
2023-04-16T07:00:15.205Z,66.58
2023-04-16T07:01:17.166Z,65.83
2023-04-16T07:02:20.496Z,66.42
2023-04-16T07:03:22.558Z,65.41
2023-04-16T07:04:25.647Z,67.28
2023-04-16T07:05:27.498Z,65.68
2023-04-16T07:06:31.856Z,66.88
2023-04-16T07:07:33.754Z,68.01
2023-04-16T07:08:36.568Z,67.00
2023-04-16T07:09:38.422Z,67.24
2023-04-16T07:10:41.263Z,67.15
2023-04-16T07:11:44.231Z,65.96
2023-04-16T07:12:47.058Z,66.46
2023-04-16T07:13:49.097Z,67.16
2023-04-16T07:14:52.155Z,65.99
2023-04-16T07:15:54.091Z,66.79
2023-04-16T07:16:56.944Z,66.19
2023-04-16T07:17:59.062Z,66.84
2023-04-16T07:19:01.906Z,67.25
2023-04-16T07:20:05.621Z,68.24
2023-04-16T07:21:07.520Z,67.58
2023-04-16T07:22:11.698Z,67.96
2023-04-16T07:23:13.640Z,68.34
2023-04-16T07:24:16.613Z,68.12
2023-04-16T07:25:21.083Z,68.26
2023-04-16T07:26:23.991Z,68.30
2023-04-16T07:27:25.867Z,68.93
2023-04-16T07:28:28.730Z,69.16
2023-04-16T07:29:30.613Z,68.36
2023-04-16T07:30:34.649Z,68.80
2023-04-16T07:31:36.678Z,68.36
2023-04-16T07:32:39.628Z,68.08
2023-04-16T07:33:41.511Z,68.92
2023-04-16T07:34:44.383Z,68.54
2023-04-16T07:35:46.187Z,69.25
2023-04-16T07:36:49.025Z,68.13
2023-04-16T07:37:52.629Z,68.41
2023-04-16T07:38:55.444Z,68.31
2023-04-16T07:39:57.729Z,68.60
2023-04-16T07:41:00.712Z,67.84
2023-04-16T07:42:03.756Z,68.49
2023-04-16T07:43:06.604Z,68.76
2023-04-16T07:44:09.752Z,68.80
2023-04-16T07:45:12.978Z,68.07
2023-04-16T07:46:14.907Z,69.03
2023-04-16T07:47:17.838Z,69.47
2023-04-16T07:48:19.803Z,69.43
2023-04-16T07:49:22.736Z,69.72
2023-04-16T07:50:26.106Z,69.55
2023-04-16T07:51:27.992Z,68.50
2023-04-16T07:52:30.809Z,68.35
2023-04-16T07:53:34.045Z,69.11
2023-04-16T07:54:36.881Z,69.50
2023-04-16T07:55:38.858Z,69.96
2023-04-16T07:56:41.925Z,69.48
2023-04-16T07:57:43.737Z,69.72
2023-04-16T07:58:46.578Z,68.93
2023-04-16T07:59:48.476Z,69.46
2023-04-16T08:00:52.257Z,69.82
2023-04-16T08:01:54.408Z,70.03
2023-04-16T08:02:57.550Z,69.63
2023-04-16T08:04:00.682Z,70.02
2023-04-16T08:05:02.830Z,69.48
2023-04-16T08:06:05.890Z,69.69
2023-04-16T08:07:07.756Z,69.40
2023-04-16T08:08:10.814Z,70.36
2023-04-16T08:09:14.033Z,70.23
2023-04-16T08:10:17.022Z,70.19
2023-04-16T08:11:18.866Z,69.52
2023-04-16T08:12:22.466Z,69.71
2023-04-16T08:13:24.387Z,69.88
2023-04-16T08:14:27.383Z,70.37
2023-04-16T08:15:29.382Z,69.94
2023-04-16T08:16:32.341Z,69.37
2023-04-16T08:17:35.498Z,70.59
2023-04-16T08:18:37.451Z,69.44
2023-04-16T08:19:40.379Z,70.15
2023-04-16T08:20:43.639Z,68.72
2023-04-16T08:21:45.672Z,68.80
2023-04-16T08:22:49.394Z,69.63
2023-04-16T08:23:51.372Z,69.07
2023-04-16T08:24:55.698Z,69.83
2023-04-16T08:25:57.612Z,69.81
2023-04-16T08:27:08.137Z,69.63
2023-04-16T08:28:20.540Z,70.44
2023-04-16T08:29:25.013Z,70.11
2023-04-16T08:30:28.651Z,69.63
2023-04-16T08:31:30.737Z,70.32
2023-04-16T08:32:33.858Z,70.26
2023-04-16T08:33:35.759Z,70.29
2023-04-16T08:34:38.755Z,69.68
2023-04-16T08:35:40.895Z,69.88
2023-04-16T08:36:43.854Z,69.21
2023-04-16T08:37:46.038Z,69.05
2023-04-16T08:38:48.893Z,69.67
2023-04-16T08:39:51.740Z,70.50
2023-04-16T08:40:56.756Z,69.41
2023-04-16T08:41:59.620Z,69.77
2023-04-16T08:43:06.710Z,70.17
2023-04-16T08:44:09.612Z,69.86
2023-04-16T08:45:16.525Z,70.21
2023-04-16T08:46:22.812Z,69.80
2023-04-16T08:47:28.749Z,70.56
2023-04-16T08:48:33.603Z,70.48
2023-04-16T08:49:44.382Z,70.25
2023-04-16T08:50:48.890Z,70.12
2023-04-16T08:51:53.540Z,69.50
2023-04-16T08:53:00.527Z,69.61
2023-04-16T08:54:05.057Z,69.99
2023-04-16T08:55:13.212Z,70.13
2023-04-16T08:56:21.367Z,70.30
2023-04-16T08:57:27.024Z,69.58
2023-04-16T08:58:34.983Z,70.03
2023-04-16T08:59:38.232Z,70.54
2023-04-16T09:00:42.135Z,70.56
2023-04-16T09:01:46.935Z,70.48
2023-04-16T09:02:50.312Z,70.41
2023-04-16T09:03:54.332Z,70.75
2023-04-16T09:04:58.577Z,71.09
2023-04-16T09:06:03.436Z,71.09
2023-04-16T09:07:08.614Z,70.28
2023-04-16T09:08:11.557Z,71.35
2023-04-16T09:09:14.843Z,71.23
2023-04-16T09:10:18.486Z,70.64
2023-04-16T09:11:22.786Z,71.65
2023-04-16T09:12:25.424Z,71.63
2023-04-16T09:13:28.542Z,71.32
2023-04-16T09:14:31.008Z,71.52
2023-04-16T09:15:36.690Z,71.04
2023-04-16T09:16:39.901Z,69.91
2023-04-16T09:17:42.889Z,70.16
2023-04-16T09:18:47.736Z,70.83
2023-04-16T09:19:50.591Z,69.88
2023-04-16T09:20:53.474Z,70.07
2023-04-16T09:22:02.560Z,70.51
2023-04-16T09:23:05.870Z,70.28
2023-04-16T09:24:08.785Z,70.27
2023-04-16T09:25:12.120Z,70.13
2023-04-16T09:26:14.076Z,69.88
2023-04-16T09:27:18.321Z,70.22
2023-04-16T09:28:42.696Z,70.74
2023-04-16T09:29:45.588Z,70.97
2023-04-16T09:30:47.471Z,71.04
2023-04-16T09:32:03.277Z,70.62
2023-04-16T09:33:16.638Z,70.44
2023-04-16T09:34:19.564Z,70.47
2023-04-16T09:35:21.774Z,70.20
2023-04-16T09:36:24.684Z,69.63
2023-04-16T09:37:29.519Z,70.21
2023-04-16T09:38:47.972Z,69.33
2023-04-16T09:39:55.552Z,70.20
2023-04-16T09:41:07.227Z,69.84
2023-04-16T09:42:10.364Z,68.96
2023-04-16T09:43:14.770Z,68.47
2023-04-16T09:44:17.646Z,69.41
2023-04-16T09:45:20.302Z,68.88
2023-04-16T09:46:23.383Z,69.04
2023-04-16T09:47:27.768Z,70.30
2023-04-16T09:48:30.882Z,69.60
2023-04-16T09:49:36.767Z,69.73
2023-04-16T09:50:38.800Z,69.62
2023-04-16T09:51:43.279Z,69.76
2023-04-16T09:52:48.897Z,69.86
2023-04-16T09:53:53.543Z,69.22
2023-04-16T09:54:55.453Z,69.22
2023-04-16T09:55:58.863Z,68.74
2023-04-16T09:57:01.535Z,68.41
2023-04-16T09:58:04.444Z,69.06
2023-04-16T09:59:08.859Z,68.90
2023-04-16T10:00:13.006Z,68.69
2023-04-16T10:01:16.740Z,70.13
2023-04-16T10:02:20.124Z,70.06
2023-04-16T10:03:31.654Z,69.98
2023-04-16T10:04:46.934Z,69.24
2023-04-16T10:05:48.844Z,69.90
2023-04-16T10:07:04.961Z,68.91
2023-04-16T10:08:13.172Z,69.82
2023-04-16T10:09:16.166Z,69.77
2023-04-16T10:10:18.307Z,69.58
2023-04-16T10:11:22.137Z,69.49
2023-04-16T10:12:24.013Z,69.33
2023-04-16T10:13:27.884Z,69.62
2023-04-16T10:14:32.330Z,69.04
2023-04-16T10:15:35.641Z,69.61
2023-04-16T10:16:40.087Z,69.30
2023-04-16T10:17:44.044Z,69.57
2023-04-16T10:18:46.883Z,70.32
2023-04-16T10:19:50.748Z,69.77
2023-04-16T10:20:52.966Z,68.47
2023-04-16T10:21:56.758Z,68.98
2023-04-16T10:23:00.381Z,69.94
2023-04-16T10:24:03.216Z,70.07
2023-04-16T10:25:07.885Z,69.27
2023-04-16T10:26:09.841Z,69.65
2023-04-16T10:27:12.670Z,68.85
2023-04-16T10:28:15.549Z,69.24
2023-04-16T10:29:18.768Z,69.17
2023-04-16T10:30:22.813Z,69.74
2023-04-16T10:31:26.925Z,70.09
2023-04-16T10:32:31.438Z,70.05
2023-04-16T10:33:36.438Z,69.74
2023-04-16T10:34:39.129Z,69.86
2023-04-16T10:35:42.067Z,68.95
2023-04-16T10:36:50.188Z,69.22
2023-04-16T10:37:56.896Z,69.44
2023-04-16T10:39:01.832Z,69.84
2023-04-16T10:40:22.519Z,68.86
2023-04-16T10:41:27.641Z,68.71
2023-04-16T10:42:29.624Z,69.58
2023-04-16T10:43:34.983Z,68.82
2023-04-16T10:44:38.062Z,69.68
2023-04-16T10:45:41.485Z,69.62
2023-04-16T10:46:46.157Z,68.93
2023-04-16T10:47:48.149Z,69.68
2023-04-16T10:48:54.058Z,69.00
2023-04-16T10:49:57.229Z,68.83
2023-04-16T10:51:00.150Z,69.48
2023-04-16T10:52:10.521Z,68.49
2023-04-16T10:53:20.309Z,69.58
2023-04-16T10:54:26.855Z,69.21
2023-04-16T10:55:29.724Z,69.88
2023-04-16T10:56:35.048Z,69.43
2023-04-16T10:57:37.975Z,69.55
2023-04-16T10:58:40.091Z,69.02
2023-04-16T10:59:44.395Z,69.07
2023-04-16T11:00:51.868Z,69.36
2023-04-16T11:01:57.432Z,69.11
2023-04-16T11:02:59.699Z,69.22
2023-04-16T11:04:23.258Z,68.96
2023-04-16T11:05:46.732Z,69.16
2023-04-16T11:07:02.879Z,68.75
2023-04-16T11:08:15.988Z,69.50
2023-04-16T11:09:53.497Z,69.55
2023-04-16T11:10:58.660Z,69.60
2023-04-16T11:12:03.010Z,69.78
2023-04-16T11:13:07.650Z,68.83
2023-04-16T11:14:11.705Z,69.31
2023-04-16T11:15:16.209Z,68.49
2023-04-16T11:16:19.472Z,69.25
2023-04-16T11:17:23.316Z,68.59
2023-04-16T11:18:26.494Z,68.79
2023-04-16T11:19:29.584Z,69.13
2023-04-16T11:20:31.717Z,69.63
2023-04-16T11:21:35.310Z,68.83
2023-04-16T11:22:37.391Z,68.75
2023-04-16T11:23:51.030Z,69.68
2023-04-16T11:24:56.005Z,69.56
2023-04-16T11:25:58.599Z,68.35
2023-04-16T11:27:01.601Z,68.91
2023-04-16T11:28:03.420Z,68.74
2023-04-16T11:29:14.979Z,68.32
2023-04-16T11:30:17.239Z,68.74
2023-04-16T11:31:21.549Z,68.46
2023-04-16T11:32:23.880Z,68.70
2023-04-16T11:33:27.092Z,68.89
2023-04-16T11:34:29.209Z,68.71
2023-04-16T11:35:32.276Z,68.86
2023-04-16T11:36:43.393Z,68.51
2023-04-16T11:37:48.294Z,69.04
2023-04-16T11:38:50.271Z,68.32
2023-04-16T11:39:53.898Z,68.74
2023-04-16T11:40:55.904Z,69.33
2023-04-16T11:41:58.844Z,69.19
2023-04-16T11:43:02.914Z,68.06
2023-04-16T11:44:18.388Z,69.29
2023-04-16T11:45:21.965Z,69.32
2023-04-16T11:46:38.482Z,68.38
2023-04-16T11:47:46.529Z,68.47
2023-04-16T11:48:52.927Z,68.95
2023-04-16T11:49:55.783Z,68.93
2023-04-16T11:50:58.229Z,68.42
2023-04-16T11:52:01.517Z,69.11
2023-04-16T11:53:05.441Z,68.77
2023-04-16T11:54:11.696Z,68.40
2023-04-16T11:55:14.560Z,68.38
2023-04-16T11:56:25.703Z,68.23
2023-04-16T11:57:29.764Z,69.04
2023-04-16T11:58:31.674Z,69.34
2023-04-16T11:59:36.929Z,69.28
2023-04-16T12:00:38.850Z,68.66
2023-04-16T12:01:46.842Z,68.41
2023-04-16T12:02:51.411Z,69.04
2023-04-16T12:04:03.190Z,68.71
2023-04-16T12:05:06.736Z,69.50
2023-04-16T12:06:10.287Z,68.48
2023-04-16T12:07:13.658Z,69.59
2023-04-16T12:08:30.290Z,69.41
2023-04-16T12:09:32.653Z,68.82
2023-04-16T12:10:37.789Z,71.88
2023-04-16T12:11:40.760Z,70.07
2023-04-16T12:12:43.968Z,69.81
2023-04-16T12:14:11.270Z,68.34
2023-04-16T12:15:14.170Z,67.60
2023-04-16T12:16:20.658Z,68.22
2023-04-16T12:17:25.226Z,67.15
2023-04-16T12:18:28.328Z,67.90
2023-04-16T12:19:30.216Z,66.93
2023-04-16T12:20:40.733Z,75.11
2023-04-16T12:21:44.816Z,76.94
2023-04-16T12:22:49.494Z,75.47
2023-04-16T12:23:55.028Z,71.50
2023-04-16T12:25:01.571Z,67.93
2023-04-16T12:26:10.635Z,66.22
2023-04-16T12:27:13.058Z,65.30
2023-04-16T12:28:16.541Z,65.80
2023-04-16T12:29:20.478Z,65.09
2023-04-16T12:30:24.967Z,65.86
2023-04-16T12:31:37.664Z,66.44
2023-04-16T12:32:42.370Z,66.32
2023-04-16T12:33:45.311Z,65.27
2023-04-16T12:34:50.486Z,66.06
2023-04-16T12:35:53.446Z,67.20
2023-04-16T12:37:07.485Z,67.71
2023-04-16T12:38:09.794Z,68.26
2023-04-16T12:39:13.941Z,68.43
2023-04-16T12:40:16.022Z,68.09
2023-04-16T12:41:18.877Z,68.01
2023-04-16T12:42:21.308Z,68.82
2023-04-16T12:43:24.580Z,68.03
2023-04-16T12:44:27.822Z,68.14
2023-04-16T12:45:29.860Z,67.95
2023-04-16T12:46:32.723Z,68.58
2023-04-16T12:47:35.859Z,68.07
2023-04-16T12:48:39.147Z,68.00
2023-04-16T12:49:42.009Z,68.14
2023-04-16T12:50:44.397Z,68.26
2023-04-16T12:51:47.972Z,68.53
2023-04-16T12:52:50.035Z,68.03
2023-04-16T12:53:52.919Z,68.71
2023-04-16T12:54:54.853Z,68.28
2023-04-16T12:55:57.661Z,68.08
2023-04-16T12:56:59.596Z,69.29
2023-04-16T12:58:02.492Z,68.94
2023-04-16T12:59:05.377Z,69.21
2023-04-16T13:00:08.477Z,69.03
2023-04-16T13:01:11.914Z,68.53
2023-04-16T13:02:14.931Z,68.00
2023-04-16T13:03:17.048Z,68.17
2023-04-16T13:04:24.189Z,68.64
2023-04-16T13:05:27.573Z,69.41
2023-04-16T13:06:31.467Z,69.17
2023-04-16T13:07:34.218Z,68.80
2023-04-16T13:08:37.862Z,68.98
2023-04-16T13:09:40.936Z,69.25
2023-04-16T13:10:42.924Z,69.15
2023-04-16T13:11:46.144Z,68.64
2023-04-16T13:12:48.890Z,68.27
2023-04-16T13:13:51.855Z,68.40
2023-04-16T13:14:53.795Z,68.40
2023-04-16T13:15:56.685Z,68.27
2023-04-16T13:16:58.684Z,68.36
2023-04-16T13:18:02.216Z,69.21
2023-04-16T13:19:04.121Z,68.64
2023-04-16T13:20:09.450Z,68.72
2023-04-16T13:21:12.451Z,68.40
2023-04-16T13:22:14.322Z,69.19
2023-04-16T13:23:17.297Z,68.21
2023-04-16T13:24:20.358Z,68.51
2023-04-16T13:25:22.827Z,69.26
2023-04-16T13:26:25.717Z,69.29
2023-04-16T13:27:27.546Z,69.35
2023-04-16T13:28:30.713Z,68.71
2023-04-16T13:29:32.583Z,68.55
2023-04-16T13:30:35.561Z,69.17
2023-04-16T13:31:39.100Z,69.29
2023-04-16T13:32:41.132Z,69.27
2023-04-16T13:33:44.275Z,69.55
2023-04-16T13:34:46.355Z,68.79
2023-04-16T13:35:51.163Z,69.44
2023-04-16T13:36:53.051Z,68.85
2023-04-16T13:37:55.930Z,69.00
2023-04-16T13:38:57.751Z,68.95
2023-04-16T13:40:00.610Z,69.72
2023-04-16T13:41:02.538Z,69.74